Time;durP1;ratioP1;P1;durP2;ratioP2;P2;SDS_P1;SDS_P2;PMS_P1;PMS_P2;Temp;Humidity;BMP_temperature;BMP_pressure;BME280_temperature;BME280_humidity;BME280_pressure;Samples;Min_cycle;Max_cycle;Signal;HPM_P1;HPM_P2
2021/03/14 00:00:45;;;;;;;20.85;6.60;;;8.40;99.90;;;8.47;70.35;100053.75;4937374;29;20123;-73
2021/03/14 00:03:15;;;;;;;21.67;5.90;;;8.40;99.90;;;8.49;70.60;100066.91;4937063;29;20413;-74
2021/03/14 00:05:46;;;;;;;25.83;6.18;;;8.40;99.90;;;8.48;69.93;100062.53;4937147;29;20043;-74
2021/03/14 00:08:15;;;;;;;24.10;7.03;;;8.40;99.90;;;8.49;70.50;100070.41;4937324;29;20071;-74
2021/03/14 00:10:46;;;;;;;24.80;7.50;;;8.40;99.90;;;8.57;70.07;100065.06;4937132;29;20051;-74
2021/03/14 00:13:17;;;;;;;24.80;6.22;;;8.40;99.90;;;8.43;70.15;100051.13;4937081;29;20417;-74
2021/03/14 00:15:44;;;;;;;25.60;7.13;;;8.50;99.90;;;8.52;69.46;100061.59;4937048;29;20106;-74
2021/03/14 00:18:13;;;;;;;24.30;7.28;;;8.40;99.90;;;8.48;70.21;100078.34;4919785;29;20056;-74
2021/03/14 00:20:41;;;;;;;25.30;6.32;;;8.40;99.90;;;8.41;69.93;100074.00;4936859;29;20545;-74
2021/03/14 00:23:09;;;;;;;20.35;6.47;;;8.30;99.90;;;8.43;69.72;100088.03;4919889;29;20497;-74
2021/03/14 00:25:36;;;;;;;23.20;7.07;;;8.30;99.90;;;8.51;69.77;100088.84;4919787;29;20063;-73
2021/03/14 00:28:06;;;;;;;21.98;6.82;;;8.30;99.90;;;8.52;69.22;100094.09;4919606;29;20458;-74
2021/03/14 00:30:33;;;;;;;23.02;6.30;;;8.40;99.90;;;8.39;68.85;100095.09;4936656;29;20110;-74
2021/03/14 00:33:01;;;;;;;22.17;7.55;;;8.40;99.90;;;8.27;69.22;100095.19;4936555;29;20048;-74
2021/03/14 00:35:29;;;;;;;21.52;7.00;;;8.30;99.90;;;8.32;69.01;100097.78;4936542;29;20501;-74
2021/03/14 00:37:56;;;;;;;29.35;6.88;;;8.30;99.90;;;8.37;69.31;100107.41;4936584;29;20059;-74
2021/03/14 00:40:26;;;;;;;19.60;6.90;;;8.30;99.90;;;8.17;69.05;100067.13;4918681;29;20185;-73
2021/03/14 00:42:57;;;;;;;25.23;7.05;;;8.30;99.90;;;8.39;69.41;100110.00;4936685;29;20047;-74
2021/03/14 00:45:31;;;;;;;29.77;7.03;;;8.30;99.90;;;8.45;69.12;100115.25;4936309;29;20044;-74
2021/03/14 00:48:01;;;;;;;23.00;7.22;;;8.30;99.90;;;8.39;69.08;100102.09;4936424;29;20036;-74
2021/03/14 00:50:32;;;;;;;25.70;6.20;;;8.40;99.90;;;8.49;69.04;100114.34;4919197;29;20051;-73
2021/03/14 00:52:59;;;;;;;;;;;8.40;99.90;;;8.38;68.84;100124.09;4919662;29;20071;-74
2021/03/14 00:55:29;;;;;;;29.15;7.55;;;8.30;99.90;;;8.43;68.95;100127.56;4919296;29;19933;-72
2021/03/14 00:57:56;;;;;;;22.20;6.90;;;8.30;99.90;;;8.49;68.28;100127.50;4936135;29;20052;-74
2021/03/14 01:00:25;;;;;;;20.48;6.40;;;8.40;99.90;;;8.52;68.83;100136.25;4936120;29;20051;-73
2021/03/14 01:02:54;;;;;;;23.98;7.00;;;8.40;99.90;;;8.51;68.70;100128.38;4919036;29;20162;-74
2021/03/14 01:05:25;;;;;;;25.92;6.88;;;8.40;99.90;;;8.48;68.74;100134.53;4919040;29;20102;-74
2021/03/14 01:07:53;;;;;;;31.75;8.25;;;8.40;99.90;;;8.58;67.93;100136.22;4935963;29;20157;-73
2021/03/14 01:10:22;;;;;;;31.33;7.43;;;8.40;99.90;;;8.55;68.03;100145.91;4918807;29;20048;-73
2021/03/14 01:12:51;;;;;;;21.27;6.78;;;8.40;99.90;;;8.59;68.14;100153.78;4919132;29;20090;-73
2021/03/14 01:15:23;;;;;;;22.42;7.40;;;8.50;99.90;;;8.64;67.54;100153.72;4936058;29;20060;-74
2021/03/14 01:17:55;;;;;;;18.30;7.45;;;8.50;99.90;;;8.46;67.84;100151.25;4919066;29;20450;-73
2021/03/14 01:20:25;;;;;;;27.02;7.80;;;8.40;99.90;;;8.62;67.88;100159.03;4935858;29;20048;-74
2021/03/14 01:22:52;;;;;;;26.05;8.05;;;8.50;99.90;;;8.52;68.23;100159.97;4935584;29;20114;-74
2021/03/14 01:25:20;;;;;;;27.15;7.07;;;8.40;99.90;;;8.45;68.17;100162.66;4935934;29;20059;-74
2021/03/14 01:27:53;;;;;;;23.13;6.90;;;8.40;99.90;;;8.62;68.13;100164.28;4935665;29;20055;-74
2021/03/14 01:30:22;;;;;;;18.50;7.53;;;8.50;99.90;;;8.63;68.41;100159.91;4935677;29;20048;-74
2021/03/14 01:32:49;;;;;;;19.98;6.75;;;8.50;99.90;;;8.55;68.31;100159.97;4935656;29;20063;-74
2021/03/14 01:35:19;;;;;;;26.02;7.22;;;8.50;99.90;;;8.67;68.03;100172.19;4935516;29;20058;-73
2021/03/14 01:37:47;;;;;;;23.45;6.97;;;8.60;99.90;;;8.57;68.15;100160.84;4935587;29;20110;-73
2021/03/14 01:40:16;;;;;;;19.90;7.63;;;8.50;99.90;;;8.64;68.05;100173.06;4935743;29;20095;-74
2021/03/14 01:42:44;;;;;;;22.40;6.78;;;8.50;99.90;;;8.52;68.15;100180.19;4935444;29;20063;-74
2021/03/14 01:45:14;;;;;;;20.02;7.70;;;8.40;99.90;;;8.57;68.12;100179.28;4935345;29;20577;-74
2021/03/14 01:47:44;;;;;;;29.77;7.97;;;8.40;99.90;;;8.57;68.09;100176.66;4935512;29;20402;-74
2021/03/14 01:50:15;;;;;;;24.02;7.18;;;8.50;99.90;;;8.19;68.22;100112.75;4935470;29;20505;-74
2021/03/14 01:52:44;;;;;;;24.90;7.25;;;8.50;99.90;;;8.51;68.54;100176.69;4918322;29;20055;-74
2021/03/14 01:55:14;;;;;;;24.13;6.60;;;8.40;99.90;;;8.45;68.37;100189.91;4935592;29;20528;-74
2021/03/14 01:57:42;;;;;;;;;;;8.40;99.90;;;8.01;69.05;100145.34;4935733;29;20564;-74
2021/03/14 02:00:13;;;;;;;21.40;6.90;;;8.30;99.90;;;8.39;69.07;100191.69;4935510;29;20014;-73
2021/03/14 02:02:42;;;;;;;20.35;6.10;;;8.30;99.90;;;8.47;68.96;100193.41;4935238;29;20067;-74
2021/03/14 02:05:12;;;;;;;20.23;6.63;;;8.30;99.90;;;8.30;68.94;100168.94;4935463;29;20059;-74
2021/03/14 02:07:42;;;;;;;;;;;8.40;99.90;;;8.50;68.92;100209.19;4935901;29;20052;-73
2021/03/14 02:10:13;;;;;;;23.10;6.40;;;8.40;99.90;;;8.49;69.34;100223.25;4935506;29;19923;-74
2021/03/14 02:12:52;;;;;;;23.08;7.13;;;8.40;99.90;;;8.49;69.42;100210.09;4935334;29;20059;-73
2021/03/14 02:15:22;;;;;;;23.20;6.80;;;8.40;99.90;;;8.50;69.75;100213.56;4935267;29;20107;-74
2021/03/14 02:17:52;;;;;;;15.32;5.45;;;8.40;99.90;;;8.52;69.48;100217.94;4935283;29;20044;-74
2021/03/14 02:20:24;;;;;;;24.02;6.15;;;8.40;99.90;;;8.32;70.14;100211.06;4935358;29;20051;-74
2021/03/14 02:23:04;;;;;;;18.30;5.30;;;8.40;99.90;;;8.36;69.77;100205.78;4935126;29;20040;-73
2021/03/14 02:25:39;;;;;;;23.85;6.55;;;8.30;99.90;;;8.48;69.60;100224.13;4935247;29;20059;-73
2021/03/14 02:28:08;;;;;;;22.83;7.20;;;8.40;99.90;;;8.53;69.56;100243.44;4935259;29;20052;-74
2021/03/14 02:30:35;;;;;;;24.08;6.10;;;8.40;99.90;;;8.43;69.78;100233.84;4935042;29;20122;-73
2021/03/14 02:33:04;;;;;;;20.17;6.75;;;8.30;99.90;;;8.50;69.76;100232.00;4935145;29;20083;-73
2021/03/14 02:35:32;;;;;;;26.38;8.05;;;8.40;99.90;;;8.53;69.88;100235.53;4917941;29;20075;-74
2021/03/14 02:38:00;;;;;;;23.45;7.40;;;8.40;99.90;;;8.58;69.98;100236.38;4934829;29;20501;-74
2021/03/14 02:40:29;;;;;;;23.02;8.25;;;8.40;99.90;;;8.62;69.94;100237.22;4934977;29;20047;-74
2021/03/14 02:42:57;;;;;;;21.90;6.97;;;8.50;99.90;;;8.64;70.21;100244.25;4934906;29;20127;-74
2021/03/14 02:45:27;;;;;;;16.25;6.35;;;8.50;99.90;;;8.56;70.63;100240.78;4935128;29;20102;-73
2021/03/14 02:47:56;;;;;;;20.90;6.47;;;8.50;99.90;;;8.62;70.17;100243.38;4934970;29;20050;-74
2021/03/14 02:50:24;;;;;;;23.17;6.43;;;8.50;99.90;;;8.64;70.33;100246.00;4934859;29;20134;-74
2021/03/14 02:52:52;;;;;;;17.60;5.65;;;8.50;99.90;;;8.66;70.88;100247.75;4935093;29;20078;-73
2021/03/14 02:55:23;;;;;;;26.80;7.05;;;8.50;99.90;;;8.46;70.33;100222.41;4934832;29;20103;-74
2021/03/14 02:57:52;;;;;;;23.55;6.97;;;8.50;99.90;;;8.50;69.98;100256.63;4934940;29;20422;-73
2021/03/14 03:00:24;;;;;;;18.35;6.38;;;8.40;99.90;;;8.44;70.23;100245.25;4934774;29;20406;-74
2021/03/14 03:02:56;;;;;;;17.77;6.43;;;8.40;99.90;;;8.43;70.03;100238.22;4934712;29;20051;-74
2021/03/14 03:05:25;;;;;;;21.65;6.82;;;8.40;99.90;;;8.54;69.80;100252.19;4938244;29;20040;-74
2021/03/14 03:07:56;;;;;;;24.38;6.45;;;8.40;99.90;;;8.34;71.13;100259.38;4938413;29;20478;-73
2021/03/14 03:10:28;;;;;;;18.58;6.05;;;8.30;99.90;;;8.27;71.09;100247.09;4938383;29;20395;-74
2021/03/14 03:13:00;;;;;;;19.45;6.35;;;8.30;99.90;;;8.39;71.48;100263.72;4938156;29;20074;-74
2021/03/14 03:15:28;;;;;;;18.08;6.47;;;8.30;99.90;;;8.39;71.88;100271.63;4938083;29;20466;-73
2021/03/14 03:17:58;;;;;;;22.33;6.30;;;8.30;99.90;;;8.37;71.97;100241.78;4938055;29;20048;-74
2021/03/14 03:20:26;;;;;;;18.27;6.80;;;8.40;99.90;;;8.36;72.41;100289.22;4938053;29;20039;-74
2021/03/14 03:22:55;;;;;;;24.45;6.80;;;8.40;99.90;;;8.36;73.23;100273.41;4937857;29;20047;-74
2021/03/14 03:25:23;;;;;;;23.02;6.75;;;8.30;99.90;;;8.19;74.53;100300.66;4938395;29;20067;-74
2021/03/14 03:27:52;;;;;;;19.23;6.50;;;8.20;99.90;;;8.10;75.23;100258.56;4937591;29;20137;-73
2021/03/14 03:30:23;;;;;;;17.40;7.00;;;8.10;99.90;;;8.31;75.97;100283.97;4937965;29;20516;-73
2021/03/14 03:32:52;;;;;;;21.35;6.75;;;8.10;99.90;;;8.25;76.44;100283.97;4920966;29;20052;-73
2021/03/14 03:35:22;;;;;;;22.80;6.97;;;8.10;99.90;;;8.31;75.62;100286.59;4937837;29;20098;-73
2021/03/14 03:37:50;;;;;;;20.70;6.95;;;8.10;99.90;;;8.16;75.45;100287.50;4920585;29;20055;-72
2021/03/14 03:40:22;;;;;;;22.00;6.32;;;8.00;99.90;;;8.12;75.84;100291.03;4937658;29;20091;-74
2021/03/14 03:42:59;;;;;;;26.85;6.85;;;8.00;99.90;;;8.11;76.40;100283.13;4937803;29;20035;-75
2021/03/14 03:45:29;;;;;;;18.38;5.97;;;8.00;99.90;;;8.09;76.53;100296.31;4920627;29;20094;-74
2021/03/14 03:47:58;;;;;;;18.05;6.03;;;8.00;99.90;;;7.75;77.83;100297.28;4920519;29;20121;-73
2021/03/14 03:50:46;;;;;;;15.68;5.72;;;7.80;99.90;;;7.89;78.72;100298.16;4937485;29;20043;-74
2021/03/14 03:53:14;;;;;;;11.20;5.30;;;7.80;99.90;;;7.08;78.50;100188.66;4937381;29;20130;-74
2021/03/14 03:55:45;;;;;;;14.95;6.10;;;7.70;99.90;;;7.27;79.05;100218.47;4937432;29;20047;-74
2021/03/14 03:58:17;;;;;;;17.50;6.15;;;7.70;99.90;;;7.75;79.68;100315.72;4937218;29;20130;-74
2021/03/14 04:00:46;;;;;;;22.40;6.88;;;7.60;99.90;;;7.59;80.55;100313.13;4937099;29;20409;-74
2021/03/14 04:03:15;;;;;;;15.73;5.78;;;7.50;99.90;;;7.62;80.52;100314.00;4937217;29;20394;-74
2021/03/14 04:05:45;;;;;;;12.40;5.82;;;7.50;99.90;;;7.81;80.54;100320.09;4937116;29;20047;-74
2021/03/14 04:08:16;;;;;;;21.83;6.88;;;7.70;99.90;;;7.79;80.88;100317.47;4937497;29;20051;-74
2021/03/14 04:10:44;;;;;;;16.80;6.22;;;7.70;99.90;;;7.85;80.50;100324.47;4937242;29;20509;-74
2021/03/14 04:13:12;;;;;;;19.83;6.53;;;7.70;99.90;;;7.92;80.06;100329.72;4937105;29;20052;-74
2021/03/14 04:15:41;;;;;;;21.15;6.25;;;7.80;99.90;;;7.95;80.02;100335.00;4936873;29;20043;-74
2021/03/14 04:18:09;;;;;;;21.63;6.65;;;7.90;99.90;;;7.34;79.66;100240.38;4936842;29;20565;-73
2021/03/14 04:20:40;;;;;;;20.15;5.80;;;7.80;99.90;;;7.90;79.93;100334.13;4937082;29;20054;-74
2021/03/14 04:23:16;;;;;;;19.80;6.23;;;7.80;99.90;;;7.97;79.91;100343.75;4936938;29;20043;-74
2021/03/14 04:25:44;;;;;;;24.73;7.33;;;7.80;99.90;;;7.74;80.19;100329.75;4936941;29;20545;-74
2021/03/14 04:28:12;;;;;;;25.08;6.05;;;7.70;99.90;;;7.88;79.88;100343.75;4936522;29;20060;-74
2021/03/14 04:30:42;;;;;;;16.38;6.05;;;7.80;99.90;;;7.82;79.96;100341.16;4919721;29;20055;-73
2021/03/14 04:33:11;;;;;;;19.35;7.20;;;7.70;99.90;;;7.84;79.96;100347.28;4919799;29;20425;-73
2021/03/14 04:35:40;;;;;;;16.65;6.85;;;7.70;99.90;;;7.90;79.72;100347.28;4936681;29;20428;-74
2021/03/14 04:38:09;;;;;;;17.03;5.37;;;7.80;99.90;;;7.92;79.48;100357.78;4936517;29;20043;-74
2021/03/14 04:40:38;;;;;;;24.17;5.85;;;7.80;99.90;;;7.96;79.47;100363.06;4936476;29;20466;-74
2021/03/14 04:43:10;;;;;;;23.55;5.82;;;7.90;99.90;;;7.91;79.97;100369.22;4919354;29;20532;-74
2021/03/14 04:45:41;;;;;;;19.17;6.40;;;7.90;99.90;;;7.82;79.97;100367.47;4936637;29;20059;-74
2021/03/14 04:48:09;;;;;;;21.13;6.65;;;7.80;99.90;;;7.95;80.17;100376.25;4936717;29;20075;-74
2021/03/14 04:50:39;;;;;;;26.17;7.28;;;7.80;99.90;;;8.04;79.82;100378.84;4936397;29;20094;-74
2021/03/14 04:53:09;;;;;;;20.83;6.82;;;7.90;99.90;;;7.97;80.45;100377.13;4936585;29;20051;-74
2021/03/14 04:55:43;;;;;;;25.20;7.63;;;7.90;99.90;;;7.91;80.12;100377.13;4936135;29;20510;-74
2021/03/14 04:58:15;;;;;;;22.80;6.38;;;7.90;99.90;;;7.75;80.78;100363.09;4936497;29;20059;-73
2021/03/14 05:00:44;;;;;;;18.58;5.90;;;7.80;99.90;;;7.73;80.82;100367.50;4936516;29;20047;-73
2021/03/14 05:03:14;;;;;;;25.23;7.00;;;7.70;99.90;;;7.93;80.80;100394.69;4936058;29;20040;-73
2021/03/14 05:05:46;;;;;;;19.92;6.30;;;7.80;99.90;;;7.83;80.62;100392.94;4936173;29;20054;-73
2021/03/14 05:08:19;;;;;;;14.80;6.43;;;7.70;99.90;;;7.71;80.70;100402.56;4918838;29;20455;-73
2021/03/14 05:10:49;;;;;;;17.85;6.43;;;7.70;99.90;;;7.72;80.59;100407.88;4919179;29;20514;-73
2021/03/14 05:13:17;;;;;;;24.97;6.57;;;7.60;99.90;;;7.70;80.08;100404.34;4936037;29;20043;-73
2021/03/14 05:15:50;;;;;;;22.77;6.57;;;7.60;99.90;;;7.59;80.42;100414.00;4936036;29;20086;-73
2021/03/14 05:18:18;;;;;;;19.00;6.28;;;7.50;99.90;;;7.55;80.59;100420.13;4918857;29;20051;-73
2021/03/14 05:20:47;;;;;;;20.50;6.57;;;7.50;99.90;;;7.50;81.34;100421.88;4935793;29;20103;-73
2021/03/14 05:23:16;;;;;;;20.30;6.72;;;7.40;99.90;;;7.50;81.41;100427.16;4935764;29;20524;-72
2021/03/14 05:25:44;;;;;;;20.83;6.68;;;7.40;99.90;;;7.48;81.25;100435.91;4935693;29;20043;-73
2021/03/14 05:28:15;;;;;;;16.05;6.40;;;7.40;99.90;;;7.53;81.42;100434.19;4935681;29;20501;-74
2021/03/14 05:30:44;;;;;;;19.85;6.57;;;7.40;99.90;;;7.50;81.62;100445.56;4935654;29;20056;-73
2021/03/14 05:33:12;;;;;;;21.65;6.90;;;7.40;99.90;;;7.57;81.79;100451.72;4935751;29;20051;-74
2021/03/14 05:35:40;;;;;;;15.90;6.72;;;7.50;99.90;;;7.50;81.84;100450.81;4935556;29;20040;-73
2021/03/14 05:38:10;;;;;;;20.67;7.00;;;7.40;99.90;;;7.56;81.34;100456.09;4935764;29;20054;-73
2021/03/14 05:40:38;;;;;;;18.67;6.90;;;7.40;99.90;;;7.51;81.60;100457.84;4935628;29;20509;-73
2021/03/14 05:43:06;;;;;;;19.63;7.13;;;7.40;99.90;;;7.53;82.07;100460.50;4918498;29;20051;-73
2021/03/14 05:45:34;;;;;;;20.60;6.38;;;7.40;99.90;;;7.44;82.02;100470.97;4935660;29;20043;-73
2021/03/14 05:48:06;;;;;;;17.63;6.23;;;7.40;99.90;;;7.50;82.09;100471.88;4935517;29;20439;-73
2021/03/14 05:50:34;;;;;;;22.77;6.47;;;7.40;99.90;;;7.43;82.40;100485.91;4935443;29;20047;-73
2021/03/14 05:53:03;;;;;;;19.17;6.80;;;7.40;99.90;;;7.46;82.41;100480.63;4935522;29;20110;-74
2021/03/14 05:55:32;;;;;;;26.08;7.45;;;7.40;99.90;;;7.49;82.28;100482.41;4935363;29;20098;-73
2021/03/14 05:58:01;;;;;;;19.20;7.43;;;7.40;99.90;;;7.49;82.66;100485.91;4935305;29;20044;-73
2021/03/14 06:00:32;;;;;;;20.50;7.47;;;7.40;99.90;;;7.57;82.11;100494.69;4935473;29;20048;-73
2021/03/14 06:03:02;;;;;;;19.85;7.80;;;7.50;99.90;;;7.48;82.18;100489.41;4935566;29;20147;-72
2021/03/14 06:05:31;;;;;;;25.10;8.05;;;7.50;99.90;;;7.58;82.00;100493.81;4918454;29;20051;-72
2021/03/14 06:07:59;;;;;;;20.65;7.93;;;7.50;99.90;;;7.53;82.36;100513.97;4935375;29;20110;-72
2021/03/14 06:10:27;;;;;;;23.97;7.60;;;7.50;99.90;;;7.60;82.25;100507.88;4935284;29;20044;-73
2021/03/14 06:12:55;;;;;;;28.55;8.13;;;7.50;99.90;;;7.57;82.44;100510.47;4935051;29;20465;-73
2021/03/14 06:15:27;;;;;;;16.80;6.57;;;7.50;99.90;;;7.56;82.13;100514.00;4935150;29;20044;-73
2021/03/14 06:17:55;;;;;;;23.35;6.90;;;7.50;99.90;;;7.51;82.47;100522.75;4935215;29;20431;-73
2021/03/14 06:20:42;;;;;;;20.47;7.50;;;7.40;99.90;;;7.41;82.58;100527.13;4935126;29;20062;-73
2021/03/14 06:23:12;;;;;;;17.60;7.43;;;7.30;99.90;;;7.55;82.79;100538.53;4935121;29;20114;-72
2021/03/14 06:25:42;;;;;;;20.40;8.30;;;7.40;99.90;;;7.41;82.77;100524.50;4935114;29;20047;-73
2021/03/14 06:28:10;;;;;;;26.08;8.60;;;7.40;99.90;;;7.52;82.81;100543.81;4935166;29;20052;-74
2021/03/14 06:30:38;;;;;;;21.73;8.82;;;7.40;99.90;;;7.56;82.84;100550.84;4935310;29;20502;-73
2021/03/14 06:33:10;;;;;;;21.67;8.60;;;7.40;99.90;;;7.50;82.90;100536.78;4935152;29;20040;-73
2021/03/14 06:35:43;;;;;;;23.30;9.30;;;7.40;99.90;;;7.61;83.12;100564.88;4935033;29;20126;-73
2021/03/14 06:38:23;;;;;;;25.08;9.88;;;7.40;99.90;;;7.50;83.05;100571.88;4935483;29;20146;-73
2021/03/14 06:41:10;;;;;;;23.05;10.07;;;7.40;99.90;;;7.58;82.88;100569.25;4938805;29;20446;-73
2021/03/14 06:43:47;;;;;;;28.13;10.17;;;7.50;99.90;;;7.53;83.45;100569.22;4938677;29;20075;-73
2021/03/14 06:46:23;;;;;;;26.53;10.77;;;7.50;99.90;;;7.62;83.01;100577.19;4938720;29;20157;-73
2021/03/14 06:49:13;;;;;;;24.30;9.97;;;7.50;99.90;;;7.60;83.41;100581.56;4938461;29;20043;-73
2021/03/14 06:51:46;;;;;;;21.77;8.97;;;7.50;99.90;;;7.58;83.14;100569.25;4933994;29;20148;-73
2021/03/14 06:54:31;;;;;;;25.50;10.45;;;7.60;99.90;;;7.70;83.72;100591.25;4938454;29;20326;-72
2021/03/14 06:57:09;;;;;;;18.55;8.35;;;7.60;99.90;;;7.70;82.78;100569.28;4938706;29;20056;-73
2021/03/14 06:59:39;;;;;;;22.45;8.70;;;7.70;99.90;;;7.78;82.82;100573.69;4938536;29;20051;-73
2021/03/14 07:02:09;;;;;;;23.80;9.32;;;7.70;99.90;;;7.75;83.15;100605.28;4921378;29;20522;-73
2021/03/14 07:04:42;;;;;;;;;;;7.70;99.90;;;7.82;82.58;100608.81;4938740;29;20058;-73
2021/03/14 07:07:25;;;;;;;21.98;8.35;;;7.70;99.90;;;7.80;83.04;100611.41;4938437;29;20447;-73
2021/03/14 07:10:00;;;;;;;17.83;7.63;;;7.70;99.90;;;7.40;83.12;100548.13;4938383;29;20040;-73
2021/03/14 07:12:32;;;;;;;25.92;8.90;;;7.70;99.90;;;7.78;83.29;100623.69;4938178;29;20054;-73
2021/03/14 07:15:12;;;;;;;30.48;8.85;;;7.70;99.90;;;7.83;83.44;100624.59;4938099;29;20120;-73
2021/03/14 07:17:41;;;;;;;21.25;7.75;;;7.70;99.90;;;7.91;83.54;100630.78;4938241;29;20051;-73
2021/03/14 07:20:17;;;;;;;20.50;8.43;;;7.80;99.90;;;7.84;83.24;100630.75;4938154;29;20067;-73
2021/03/14 07:22:59;;;;;;;25.17;8.93;;;7.80;99.90;;;7.95;83.12;100650.97;4938062;29;20039;-73
2021/03/14 07:25:28;;;;;;;28.58;8.13;;;7.80;99.90;;;7.71;83.45;100592.09;4937933;29;20498;-72
2021/03/14 07:27:56;;;;;;;25.85;7.28;;;7.90;99.90;;;7.96;82.84;100658.00;4937761;29;20062;-72
2021/03/14 07:30:26;;;;;;;26.50;7.75;;;7.90;99.90;;;7.96;82.73;100668.53;4938328;29;20387;-73
2021/03/14 07:32:54;;;;;;;;;;;7.80;99.90;;;8.06;82.84;100674.69;4938414;29;20071;-73
2021/03/14 07:35:25;;;;;;;16.70;6.78;;;7.90;99.90;;;7.92;83.12;100664.13;4937831;29;19927;-72
2021/03/14 07:37:55;;;;;;;21.40;7.38;;;7.90;99.90;;;7.90;82.82;100662.34;4937660;29;20052;-73
2021/03/14 07:40:25;;;;;;;;;;;7.80;99.90;;;8.05;82.52;100673.81;4938129;29;20058;-72
2021/03/14 07:43:00;;;;;;;22.17;7.18;;;7.90;99.90;;;7.98;82.39;100690.47;4937753;29;20376;-72
2021/03/14 07:45:29;;;;;;;19.90;6.68;;;7.90;99.90;;;8.05;82.53;100686.97;4937813;29;20048;-73
2021/03/14 07:47:58;;;;;;;21.80;6.78;;;7.90;99.90;;;8.07;82.98;100698.38;4937633;29;20052;-73
2021/03/14 07:50:30;;;;;;;25.00;7.70;;;7.90;99.90;;;8.01;82.96;100698.38;4936919;29;20048;-73
2021/03/14 07:53:07;;;;;;;23.50;7.18;;;7.90;99.90;;;7.75;83.32;100657.94;4920104;29;20063;-71
2021/03/14 07:55:38;;;;;;;28.35;7.35;;;7.90;99.90;;;8.05;83.42;100700.13;4937519;29;20443;-72
2021/03/14 07:58:06;;;;;;;20.58;7.90;;;8.00;99.90;;;8.15;83.65;100716.84;4937472;29;20502;-72
2021/03/14 08:00:37;;;;;;;19.60;7.07;;;8.00;99.90;;;8.22;83.00;100713.38;4937092;29;20044;-73
2021/03/14 08:03:07;;;;;;;25.45;8.00;;;8.10;99.90;;;8.07;82.65;100697.53;4919766;29;20084;-72
2021/03/14 08:05:51;;;;;;;24.50;7.82;;;8.10;99.90;;;8.41;82.68;100725.75;4937026;29;20139;-75
2021/03/14 08:08:47;;;;;;;21.75;7.55;;;8.30;99.90;;;8.22;81.97;100723.91;4937387;29;20054;-76
2021/03/14 08:11:32;;;;;;;22.80;7.15;;;8.20;99.90;;;8.29;81.96;100738.00;4930247;29;20060;-77
2021/03/14 08:14:00;;;;;;;19.48;7.18;;;8.20;99.90;;;8.21;82.41;100736.19;4936992;29;20044;-77
2021/03/14 08:16:28;;;;;;;18.98;7.55;;;8.10;99.90;;;8.13;82.85;100735.28;4937353;29;20055;-77
2021/03/14 08:19:11;;;;;;;15.77;6.93;;;8.10;99.90;;;8.15;82.87;100744.06;4936818;29;20040;-78
2021/03/14 08:21:40;;;;;;;21.38;6.80;;;8.00;99.90;;;7.99;83.49;100747.53;4937192;29;20047;-76
2021/03/14 08:24:34;;;;;;;19.77;6.28;;;7.90;99.90;;;8.07;83.84;100756.34;4936722;29;20043;-79
2021/03/14 08:27:08;;;;;;;21.48;8.48;;;8.00;99.90;;;8.20;83.23;100766.06;4919470;29;20106;-71
2021/03/14 08:29:43;;;;;;;32.03;6.85;;;8.10;99.90;;;8.21;83.09;100770.44;4919874;29;20106;-76
2021/03/14 08:32:22;;;;;;;23.27;6.45;;;8.10;99.90;;;8.43;82.46;100776.69;4919403;29;20047;-69
2021/03/14 08:34:52;;;;;;;21.13;7.03;;;8.30;99.90;;;8.47;82.70;100780.22;4919534;29;20138;-71
2021/03/14 08:37:25;;;;;;;18.33;5.82;;;8.30;99.90;;;8.37;82.32;100774.03;4919508;29;20047;-69
2021/03/14 08:40:00;;;;;;;24.55;6.95;;;8.30;99.90;;;8.38;82.81;100785.47;4936464;29;20044;-70
2021/03/14 08:42:50;;;;;;;22.33;7.15;;;8.30;99.90;;;8.37;81.99;100784.59;4936538;29;20066;-70
2021/03/14 08:45:23;;;;;;;22.00;6.55;;;8.30;99.90;;;8.37;82.36;100792.50;4919257;29;20513;-69
2021/03/14 08:48:17;;;;;;;23.73;6.35;;;8.30;99.90;;;8.34;82.49;100789.84;4934665;29;20051;-71
2021/03/14 08:50:50;;;;;;;23.75;6.82;;;8.20;99.90;;;8.37;82.26;100796.88;4919050;29;20524;-69
2021/03/14 08:53:25;;;;;;;23.38;7.25;;;8.30;99.90;;;8.43;82.37;100808.31;4918977;29;20064;-69
2021/03/14 08:55:56;;;;;;;24.70;7.03;;;8.30;99.90;;;8.45;82.28;100811.84;4936407;29;20066;-68
2021/03/14 08:58:27;;;;;;;25.33;7.65;;;8.40;99.90;;;8.48;81.96;100813.63;4919245;29;20519;-68
2021/03/14 09:01:17;;;;;;;17.40;6.93;;;8.40;99.90;;;8.57;81.14;100826.81;4935240;29;20079;-69
2021/03/14 09:04:16;;;;;;;23.05;7.18;;;8.50;99.90;;;8.55;80.79;100828.56;4932119;29;20048;-69
2021/03/14 09:06:49;;;;;;;21.55;6.90;;;8.40;99.90;;;8.49;80.39;100823.28;4918762;29;20123;-67
2021/03/14 09:09:21;;;;;;;24.42;7.57;;;8.40;99.90;;;8.23;80.43;100800.31;4918541;29;20058;-68
2021/03/14 09:12:03;;;;;;;21.20;6.50;;;8.30;99.90;;;8.29;80.10;100794.22;4918614;29;20130;-65
2021/03/14 09:14:52;;;;;;;19.27;6.43;;;8.40;99.90;;;8.57;80.06;100838.25;4935150;29;20062;-67
2021/03/14 09:17:30;;;;;;;27.80;7.35;;;8.50;99.90;;;8.54;80.02;100854.03;4918857;29;20390;-67
2021/03/14 09:20:17;;;;;;;23.00;6.90;;;8.50;99.90;;;8.36;80.19;100856.63;4918718;29;20056;-73
2021/03/14 09:22:45;;;;;;;24.65;8.15;;;8.40;99.90;;;8.45;80.12;100864.56;4918438;29;20044;-74
2021/03/14 09:25:38;;;;;;;19.65;6.63;;;8.30;99.90;;;8.48;80.51;100869.81;4934272;29;20044;-73
2021/03/14 09:28:06;;;;;;;25.50;7.40;;;8.40;99.90;;;8.61;80.28;100878.69;4935274;29;20052;-73
2021/03/14 09:30:48;;;;;;;17.23;6.25;;;8.50;99.90;;;8.56;79.64;100857.56;4918485;29;20080;-72
2021/03/14 09:33:15;;;;;;;19.02;6.03;;;8.50;99.90;;;8.53;78.79;100848.78;4918357;29;20047;-74
2021/03/14 09:36:06;;;;;;;22.75;7.38;;;8.40;99.90;;;8.59;78.34;100867.25;4918329;29;20446;-74
2021/03/14 09:38:42;;;;;;;20.50;7.03;;;8.40;99.90;;;8.64;79.02;100876.94;4918433;29;20510;-74
2021/03/14 09:41:22;;;;;;;21.67;6.72;;;8.50;99.90;;;8.71;78.64;100886.59;4918485;29;20494;-73
2021/03/14 09:43:52;;;;;;;25.08;6.45;;;8.60;99.90;;;8.51;78.43;100864.59;4918360;29;20043;-71
2021/03/14 09:46:23;;;;;;;22.60;6.75;;;8.50;99.90;;;8.47;78.83;100875.09;4918382;29;20051;-70
2021/03/14 09:49:13;;;;;;;21.02;6.57;;;8.40;99.90;;;8.54;77.64;100879.50;4935269;29;20067;-70
2021/03/14 09:51:50;;;;;;;20.10;6.40;;;8.50;99.90;;;8.51;78.03;100863.69;4917854;29;20528;-70
2021/03/14 09:54:18;;;;;;;20.05;6.65;;;8.50;99.90;;;8.54;78.10;100884.78;4935315;29;20055;-71
2021/03/14 09:56:53;;;;;;;21.30;6.90;;;8.50;99.90;;;8.67;78.14;100897.16;4918170;29;20047;-71
2021/03/14 09:59:41;;;;;;;18.58;5.80;;;8.50;99.90;;;8.92;78.15;100906.91;4918162;29;20099;-79
2021/03/14 10:02:26;;;;;;;22.95;6.03;;;8.70;99.90;;;8.93;77.04;100906.03;4918510;29;20524;-77
2021/03/14 10:05:17;;;;;;;19.80;6.22;;;8.80;99.90;;;9.03;77.30;100918.38;4918210;29;20047;-75
2021/03/14 10:07:51;;;;;;;16.85;5.43;;;8.90;99.90;;;8.92;76.50;100905.13;4918077;29;20450;-75
2021/03/14 10:10:21;;;;;;;19.08;6.30;;;8.80;99.90;;;8.87;76.63;100885.78;4917820;29;20502;-70
2021/03/14 10:13:01;;;;;;;26.88;6.35;;;8.80;99.90;;;8.83;76.28;100902.47;4936737;29;20051;-74
2021/03/14 10:15:33;;;;;;;17.20;6.30;;;8.70;99.90;;;8.58;76.40;100865.47;4921990;29;20421;-76
2021/03/14 10:18:06;;;;;;;33.63;7.05;;;8.80;99.90;;;9.09;75.85;100928.94;4921828;29;20056;-74
2021/03/14 10:20:37;;;;;;;20.67;5.53;;;9.00;99.90;;;9.12;75.67;100922.78;4938753;29;20047;-73
2021/03/14 10:23:14;;;;;;;21.98;5.70;;;9.00;99.90;;;9.08;75.61;100919.25;4921727;29;20051;-76
2021/03/14 10:25:51;;;;;;;28.15;6.95;;;9.00;99.90;;;9.00;75.47;100928.94;4921738;29;20052;-73
2021/03/14 10:28:37;;;;;;;19.35;6.40;;;8.90;99.90;;;8.92;75.83;100939.41;4921522;29;20528;-75
2021/03/14 10:31:33;;;;;;;19.08;6.50;;;8.90;99.90;;;9.02;75.93;100942.97;4931149;29;20051;-74
2021/03/14 10:34:08;;;;;;;19.95;5.95;;;8.90;99.90;;;9.21;75.65;100946.56;4921683;29;20494;-75
2021/03/14 10:36:36;;;;;;;19.13;6.40;;;9.10;99.90;;;9.19;74.86;100936.00;4921405;29;20054;-71
2021/03/14 10:39:08;;;;;;;16.10;6.40;;;9.10;99.90;;;9.04;75.13;100944.75;4921424;29;20047;-74
2021/03/14 10:41:46;;;;;;;25.15;6.65;;;9.00;99.90;;;8.83;75.43;100909.50;4921421;29;20146;-75